Time;durP1;ratioP1;P1;durP2;ratioP2;P2;SDS_P1;SDS_P2;PMS_P1;PMS_P2;Temp;Humidity;BMP_temperature;BMP_pressure;BME280_temperature;BME280_humidity;BME280_pressure;Samples;Min_cycle;Max_cycle;Signal;HPM_P1;HPM_P2
2022/06/04 00:00:19;;;;;;;12.77;7.45;;;10.60;99.90;;;;;;5084173;28;20039;-78
2022/06/04 00:02:46;;;;;;;11.07;5.75;;;10.70;99.90;;;;;;5080591;28;20044;-78
2022/06/04 00:05:16;;;;;;;14.25;7.15;;;10.60;99.90;;;;;;5091891;28;20047;-79
2022/06/04 00:07:42;;;;;;;10.13;6.28;;;10.60;99.90;;;;;;5087495;28;20387;-79
2022/06/04 00:15:43;;;;;;;13.95;7.50;;;10.60;99.90;;;;;;5082193;28;20054;-76
2022/06/04 00:18:09;;;;;;;17.10;10.15;;;10.60;99.90;;;;;;5087345;28;20040;-78
2022/06/04 00:20:34;;;;;;;15.27;8.30;;;10.60;99.90;;;;;;5084608;28;20062;-78
2022/06/04 00:23:02;;;;;;;17.95;9.88;;;10.60;99.90;;;;;;5091714;28;20842;-78
2022/06/04 00:25:29;;;;;;;16.90;9.77;;;10.60;99.90;;;;;;5067153;28;20048;-79
2022/06/04 00:28:04;;;;;;;15.93;8.63;;;10.50;99.90;;;;;;5090040;28;20042;-78
2022/06/04 00:30:31;;;;;;;18.98;9.88;;;10.60;99.90;;;;;;5082019;28;20039;-78
2022/06/04 00:32:57;;;;;;;18.38;10.60;;;10.50;99.90;;;;;;5073635;28;20482;-79
2022/06/04 00:35:23;;;;;;;21.05;10.65;;;10.40;99.90;;;;;;5082162;28;20055;-79
2022/06/04 00:37:49;;;;;;;19.10;10.75;;;10.60;99.90;;;;;;5080965;28;20040;-80
2022/06/04 00:40:27;;;;;;;25.45;9.90;;;10.50;99.90;;;;;;5089056;28;20417;-79
2022/06/04 00:42:56;;;;;;;14.30;10.57;;;10.40;99.90;;;;;;5088284;28;20047;-80
2022/06/04 00:45:21;;;;;;;19.75;8.90;;;10.50;99.90;;;;;;5064810;28;20044;-79
2022/06/04 00:47:48;;;;;;;17.52;10.25;;;10.40;99.90;;;;;;5067133;28;20540;-79
2022/06/04 00:50:17;;;;;;;16.52;8.88;;;10.50;99.90;;;;;;5084772;28;20036;-80
2022/06/04 00:52:46;;;;;;;16.48;9.95;;;10.50;99.90;;;;;;5082829;28;20407;-77
2022/06/04 00:55:13;;;;;;;18.67;11.38;;;10.40;99.90;;;;;;5066154;28;20029;-78
2022/06/04 00:58:08;;;;;;;20.98;11.20;;;10.50;99.90;;;;;;5084094;28;20036;-77
2022/06/04 01:01:03;;;;;;;20.98;10.63;;;10.50;99.90;;;;;;5080469;28;20050;-77
2022/06/04 01:03:55;;;;;;;23.35;10.85;;;10.40;99.90;;;;;;5074870;28;20056;-78
2022/06/04 01:06:24;;;;;;;12.30;8.90;;;10.50;99.90;;;;;;5083684;28;20040;-76
2022/06/04 01:09:14;;;;;;;16.83;10.15;;;10.40;99.90;;;;;;5070125;28;20105;-77
2022/06/04 01:12:20;;;;;;;17.33;10.55;;;10.40;99.90;;;;;;5077990;28;20113;-77
2022/06/04 01:15:09;;;;;;;16.40;8.75;;;10.50;99.90;;;;;;5081677;28;20032;-78
2022/06/04 01:17:50;;;;;;;16.92;9.20;;;10.50;99.90;;;;;;5080649;28;20126;-78
2022/06/04 01:20:32;;;;;;;18.42;10.30;;;10.50;99.90;;;;;;5083961;28;20473;-79
2022/06/04 01:23:09;;;;;;;20.90;10.02;;;10.50;99.90;;;;;;5081519;28;20509;-78
2022/06/04 01:25:38;;;;;;;18.25;8.73;;;10.40;99.90;;;;;;5064436;28;20479;-77
2022/06/04 01:28:09;;;;;;;16.98;10.13;;;10.40;99.90;;;;;;5078487;28;20147;-77
2022/06/04 01:30:38;;;;;;;19.88;8.38;;;10.30;99.90;;;;;;5063920;28;20451;-78
2022/06/04 01:33:06;;;;;;;16.88;9.10;;;10.30;99.90;;;;;;5081873;28;20101;-76
2022/06/04 01:35:46;;;;;;;18.35;8.93;;;10.30;99.90;;;;;;5097731;28;20081;-78
2022/06/04 01:38:31;;;;;;;19.08;9.75;;;10.30;99.90;;;;;;5078614;28;20032;-78
2022/06/04 01:41:04;;;;;;;17.23;9.48;;;10.20;99.90;;;;;;5062868;28;20039;-77
2022/06/04 01:43:42;;;;;;;11.40;8.23;;;10.20;99.90;;;;;;5070291;22;20060;-78
2022/06/04 01:46:27;;;;;;;32.38;9.18;;;10.20;99.90;;;;;;5052888;28;20441;-77
2022/06/04 01:48:58;;;;;;;14.82;8.88;;;10.10;99.90;;;;;;5063288;28;20048;-77
2022/06/04 01:51:26;;;;;;;13.25;7.68;;;10.20;99.90;;;;;;5056958;28;20049;-78
2022/06/04 01:53:57;;;;;;;12.10;8.38;;;10.20;99.90;;;;;;5046941;28;20039;-78
2022/06/04 01:56:28;;;;;;;15.38;8.23;;;10.10;99.90;;;;;;5062538;28;20513;-77
2022/06/04 01:59:00;;;;;;;15.80;8.07;;;10.20;99.90;;;;;;5059425;28;20032;-77
2022/06/04 02:01:32;;;;;;;10.98;7.60;;;10.10;99.90;;;;;;5060515;28;20049;-77
2022/06/04 02:04:09;;;;;;;14.18;6.78;;;10.10;99.90;;;;;;5062476;28;20032;-77
2022/06/04 02:07:29;;;;;;;17.70;9.30;;;10.10;99.90;;;;;;5060089;28;20479;-77
2022/06/04 02:09:43;;;;;;;11.48;6.68;;;10.10;99.90;;;;;;5055871;28;20052;-77
2022/06/04 02:12:10;;;;;;;11.35;6.95;;;10.20;99.90;;;;;;5058244;28;20118;-77
2022/06/04 02:14:37;;;;;;;13.50;7.93;;;10.10;99.90;;;;;;5061530;28;20040;-77
2022/06/04 02:17:13;;;;;;;14.63;7.43;;;10.10;99.90;;;;;;5061906;28;20059;-77
2022/06/04 02:19:38;;;;;;;20.42;7.65;;;10.00;99.90;;;;;;5032237;28;20098;-76
2022/06/04 02:22:04;;;;;;;19.67;8.23;;;10.10;99.90;;;;;;5063575;28;20407;-76
2022/06/04 02:24:30;;;;;;;14.05;7.47;;;9.90;99.90;;;;;;5040734;28;20043;-77
2022/06/04 02:26:56;;;;;;;13.38;6.43;;;9.90;99.90;;;;;;5045539;28;20044;-78
2022/06/04 02:29:22;;;;;;;20.42;8.93;;;10.00;99.90;;;;;;5057640;28;20060;-80
2022/06/04 02:32:02;;;;;;;14.20;7.05;;;9.90;99.90;;;;;;5059446;28;20067;-76
2022/06/04 02:34:34;;;;;;;11.60;7.38;;;9.90;99.90;;;;;;5059098;28;20546;-77
2022/06/04 02:37:16;;;;;;;17.65;7.50;;;9.90;99.90;;;;;;5030818;28;20048;-78
2022/06/04 02:39:48;;;;;;;13.35;7.95;;;9.90;99.90;;;;;;5036676;28;20118;-77
2022/06/04 02:42:49;;;;;;;14.70;7.47;;;9.90;99.90;;;;;;5042938;28;20057;-77
2022/06/04 02:45:24;;;;;;;20.08;9.35;;;9.90;99.90;;;;;;4964968;28;20057;-77
2022/06/04 02:47:57;;;;;;;12.50;7.90;;;9.90;99.90;;;;;;5048342;28;20086;-78
2022/06/04 02:50:36;;;;;;;11.85;7.13;;;9.90;99.90;;;;;;5058311;28;20155;-78
2022/06/04 02:53:04;;;;;;;10.93;6.47;;;9.80;99.90;;;;;;5061859;28;20056;-78
2022/06/04 02:55:44;;;;;;;15.98;8.85;;;9.70;99.90;;;;;;5033742;28;20036;-79
2022/06/04 02:58:14;;;;;;;14.80;8.60;;;9.80;99.90;;;;;;5047851;28;20097;-78
2022/06/04 03:00:41;;;;;;;14.27;9.27;;;9.80;99.90;;;;;;5040619;28;20473;-78
2022/06/04 03:03:12;;;;;;;13.13;8.13;;;9.80;99.90;;;;;;5059513;28;20036;-76
2022/06/04 03:05:39;;;;;;;;;;;9.80;99.90;;;;;;5062423;28;20048;-77
2022/06/04 03:08:05;;;;;;;13.70;8.10;;;9.70;99.90;;;;;;5060158;28;20004;-77
2022/06/04 03:10:34;;;;;;;16.90;8.52;;;9.70;99.90;;;;;;5054967;28;20037;-77
2022/06/04 03:13:00;;;;;;;14.98;7.28;;;9.70;99.90;;;;;;5057049;28;20033;-77
2022/06/04 03:15:26;;;;;;;14.65;8.82;;;9.60;99.90;;;;;;5059444;28;20063;-79
2022/06/04 03:17:52;;;;;;;19.00;9.93;;;9.60;99.90;;;;;;5060069;28;20064;-79
2022/06/04 03:20:25;;;;;;;14.95;7.97;;;9.60;99.90;;;;;;5061109;28;20036;-78
2022/06/04 03:22:51;;;;;;;10.75;7.38;;;9.60;99.90;;;;;;5039769;28;20051;-79
2022/06/04 03:25:18;;;;;;;15.60;6.95;;;9.50;99.90;;;;;;5062490;28;20049;-79
2022/06/04 03:27:43;;;;;;;16.90;9.85;;;9.60;99.90;;;;;;5060621;28;20040;-79
2022/06/04 03:30:10;;;;;;;15.80;8.40;;;9.60;99.90;;;;;;5063232;28;20439;-78
2022/06/04 03:32:35;;;;;;;11.38;8.00;;;9.50;99.90;;;;;;5061092;28;20127;-80
2022/06/04 03:35:02;;;;;;;13.52;7.47;;;9.50;99.90;;;;;;5048500;28;20442;-80
2022/06/04 03:37:28;;;;;;;11.55;7.22;;;9.50;99.90;;;;;;5063885;28;20052;-78
2022/06/04 03:39:53;;;;;;;12.63;7.75;;;9.50;99.90;;;;;;5064938;28;20371;-78
2022/06/04 03:42:19;;;;;;;14.43;8.70;;;9.50;99.90;;;;;;5052598;28;20387;-78
2022/06/04 03:44:47;;;;;;;10.10;7.15;;;9.50;99.90;;;;;;5047203;28;20052;-79
2022/06/04 03:47:16;;;;;;;15.18;7.85;;;9.50;99.90;;;;;;5067165;28;20128;-78
2022/06/04 03:49:43;;;;;;;14.30;7.53;;;9.50;99.90;;;;;;5060785;28;20036;-78
2022/06/04 03:52:10;;;;;;;16.00;7.45;;;9.50;99.90;;;;;;5066133;28;20135;-77
2022/06/04 03:54:53;;;;;;;16.60;8.02;;;9.50;99.90;;;;;;5048835;28;20032;-78
2022/06/04 03:57:45;;;;;;;13.88;7.78;;;9.60;99.90;;;;;;5064975;28;20037;-75
2022/06/04 04:00:20;;;;;;;14.20;7.85;;;9.70;99.90;;;;;;5046997;28;20048;-77
2022/06/04 04:02:58;;;;;;;9.85;7.20;;;9.60;99.90;;;;;;5063090;28;20044;-78
2022/06/04 04:05:31;;;;;;;9.20;8.23;;;9.60;99.90;;;;;;5062145;28;20052;-79
2022/06/04 04:07:58;;;;;;;17.30;8.65;;;9.70;99.90;;;;;;5061754;28;20044;-79
2022/06/04 04:10:25;;;;;;;11.45;7.25;;;9.80;99.90;;;;;;5063743;28;20578;-78
2022/06/04 04:12:51;;;;;;;17.80;8.00;;;10.00;99.90;;;;;;5061012;28;20037;-79
2022/06/04 04:15:17;;;;;;;9.88;7.20;;;9.90;99.90;;;;;;5066631;28;20079;-79
2022/06/04 04:17:44;;;;;;;11.77;6.97;;;9.90;99.90;;;;;;5043116;28;20044;-79
2022/06/04 04:20:16;;;;;;;14.52;8.45;;;9.90;99.90;;;;;;5047098;28;20051;-79
2022/06/04 04:22:43;;;;;;;16.60;7.93;;;10.00;99.90;;;;;;5061679;28;20064;-79
2022/06/04 04:25:10;;;;;;;12.95;7.40;;;10.10;99.90;;;;;;5063672;28;20055;-78
2022/06/04 04:27:36;;;;;;;10.77;6.90;;;10.40;99.90;;;;;;5062949;28;20507;-81
2022/06/04 04:30:05;;;;;;;11.48;6.32;;;10.90;99.90;;;;;;5064726;28;20040;-79
2022/06/04 04:32:32;;;;;;;10.30;6.00;;;10.70;99.90;;;;;;5058290;28;20056;-79
2022/06/04 04:34:59;;;;;;;11.18;6.13;;;10.80;99.90;;;;;;5065749;28;20048;-81
2022/06/04 04:37:25;;;;;;;8.85;6.05;;;10.60;99.90;;;;;;5061750;28;20173;-80
2022/06/04 04:39:50;;;;;;;8.00;5.03;;;10.50;99.90;;;;;;5062744;28;20048;-80
2022/06/04 04:42:16;;;;;;;8.38;5.78;;;10.70;99.90;;;;;;5044933;28;20498;-80
2022/06/04 04:44:42;;;;;;;10.05;6.38;;;10.90;99.90;;;;;;5063189;28;20128;-80
2022/06/04 04:47:08;;;;;;;10.40;5.32;;;10.70;99.90;;;;;;5060826;28;20109;-80
2022/06/04 04:49:34;;;;;;;11.73;6.43;;;10.70;99.90;;;;;;5061480;28;20510;-80
2022/06/04 04:51:59;;;;;;;9.32;5.53;;;10.70;99.90;;;;;;5062551;28;20068;-80
2022/06/04 04:54:27;;;;;;;10.95;6.20;;;10.70;99.90;;;;;;5064158;28;20044;-78
2022/06/04 04:56:52;;;;;;;15.50;7.18;;;10.70;99.90;;;;;;5046128;28;20129;-80
2022/06/04 04:59:18;;;;;;;8.80;4.95;;;10.70;99.90;;;;;;5063779;28;20395;-82
2022/06/04 05:01:44;;;;;;;13.57;6.82;;;10.80;99.90;;;;;;5062380;28;20487;-78
2022/06/04 05:04:10;;;;;;;9.18;5.72;;;11.00;99.90;;;;;;5051303;28;20041;-79
2022/06/04 05:06:36;;;;;;;8.43;5.68;;;11.00;99.90;;;;;;5062571;28;20044;-80
2022/06/04 05:09:03;;;;;;;9.93;6.05;;;11.00;99.90;;;;;;5043268;28;20048;-80
2022/06/04 05:11:31;;;;;;;6.85;5.85;;;11.10;99.90;;;;;;5061192;28;20041;-79
2022/06/04 05:13:59;;;;;;;7.80;4.88;;;11.20;99.90;;;;;;5062899;28;20051;-81
2022/06/04 05:16:31;;;;;;;7.90;5.88;;;11.10;99.90;;;;;;5042757;28;20280;-80
2022/06/04 05:18:57;;;;;;;17.70;6.25;;;11.20;99.90;;;;;;5061518;28;20137;-79
2022/06/04 05:21:50;;;;;;;9.20;5.10;;;11.30;99.90;;;;;;5060486;28;20336;-78
2022/06/04 05:24:26;;;;;;;10.07;5.50;;;11.30;99.90;;;;;;5057388;28;20402;-79
2022/06/04 05:26:53;;;;;;;6.00;4.55;;;11.40;99.90;;;;;;5063396;28;20036;-79
2022/06/04 05:29:19;;;;;;;9.02;5.78;;;11.40;99.90;;;;;;5042213;28;20606;-78
2022/06/04 05:31:45;;;;;;;10.75;6.07;;;11.50;99.90;;;;;;5062633;28;20468;-80
2022/06/04 05:34:12;;;;;;;12.25;5.80;;;11.50;99.90;;;;;;5058885;28;20048;-80
2022/06/04 05:36:38;;;;;;;8.40;5.20;;;11.60;99.90;;;;;;5059087;28;20071;-80
2022/06/04 05:39:06;;;;;;;8.02;6.45;;;11.70;99.90;;;;;;5056812;28;20037;-81
2022/06/04 05:41:32;;;;;;;9.73;6.03;;;11.70;99.90;;;;;;5045351;28;20396;-81
2022/06/04 05:43:58;;;;;;;8.88;5.13;;;11.90;99.90;;;;;;5058870;28;20049;-81
2022/06/04 05:46:24;;;;;;;11.18;6.63;;;12.00;99.90;;;;;;5065719;28;20044;-81
2022/06/04 05:48:49;;;;;;;9.80;5.57;;;12.00;99.90;;;;;;5044914;28;20045;-82
2022/06/04 05:51:21;;;;;;;7.85;5.05;;;12.00;99.90;;;;;;5064110;28;20355;-80
2022/06/04 05:53:48;;;;;;;9.30;5.32;;;12.20;99.90;;;;;;5035679;28;20052;-79
2022/06/04 05:56:18;;;;;;;35.88;5.90;;;12.00;99.90;;;;;;5063481;28;20093;-79
2022/06/04 05:58:48;;;;;;;8.52;5.78;;;12.00;99.90;;;;;;5059282;28;20063;-80
2022/06/04 06:01:15;;;;;;;7.43;5.32;;;12.10;99.90;;;;;;5062957;28;20063;-81
2022/06/04 06:03:42;;;;;;;9.88;5.72;;;12.00;99.90;;;;;;5056838;28;20131;-81
2022/06/04 06:06:12;;;;;;;12.57;5.68;;;12.10;99.90;;;;;;5055182;28;20051;-80
2022/06/04 06:08:38;;;;;;;12.82;6.35;;;12.20;99.90;;;;;;5058026;28;20032;-81
2022/06/04 06:11:09;;;;;;;6.65;5.28;;;12.30;99.90;;;;;;5062448;28;20517;-81
2022/06/04 06:13:36;;;;;;;7.32;5.50;;;12.40;99.90;;;;;;5043653;28;20052;-81
2022/06/04 06:16:11;;;;;;;7.18;5.20;;;12.20;99.90;;;;;;5043041;28;20087;-81
2022/06/04 06:18:37;;;;;;;11.13;6.03;;;12.20;99.90;;;;;;5062728;28;20040;-81
2022/06/04 06:21:10;;;;;;;9.00;5.47;;;12.20;99.90;;;;;;5062344;28;20043;-80
2022/06/04 06:23:37;;;;;;;6.82;4.15;;;12.30;99.90;;;;;;5064995;28;20506;-81
2022/06/04 06:26:06;;;;;;;6.28;5.68;;;12.50;99.90;;;;;;5061514;28;20051;-79
2022/06/04 06:28:34;;;;;;;8.30;5.32;;;12.60;99.90;;;;;;5053551;28;20045;-82
2022/06/04 06:30:59;;;;;;;6.80;5.53;;;12.60;99.90;;;;;;5039567;28;20044;-82
2022/06/04 06:33:25;;;;;;;6.50;4.57;;;12.70;99.90;;;;;;5069589;28;20495;-80
2022/06/04 06:35:59;;;;;;;8.60;6.88;;;12.60;99.90;;;;;;5068424;28;20040;-80
2022/06/04 06:38:25;;;;;;;5.68;4.47;;;12.70;99.90;;;;;;5070929;28;20072;-82
2022/06/04 06:40:53;;;;;;;5.60;4.45;;;12.90;99.90;;;;;;5074566;28;20127;-81
2022/06/04 06:43:20;;;;;;;7.55;5.15;;;13.00;99.90;;;;;;5067644;28;20615;-81
2022/06/04 06:45:46;;;;;;;7.22;5.85;;;13.10;99.90;;;;;;5065421;28;20039;-80
2022/06/04 06:48:12;;;;;;;11.10;5.35;;;13.10;99.90;;;;;;5075873;28;20070;-79
2022/06/04 06:50:38;;;;;;;17.60;5.55;;;13.00;99.90;;;;;;5073228;28;20076;-80
2022/06/04 06:53:04;;;;;;;4.90;3.90;;;13.00;99.90;;;;;;5053027;28;20108;-84
2022/06/04 06:55:30;;;;;;;9.35;6.05;;;13.40;99.90;;;;;;5034139;28;20067;-80
2022/06/04 06:57:56;;;;;;;7.13;4.20;;;14.30;99.90;;;;;;5042732;28;20044;-80
2022/06/04 07:00:22;;;;;;;10.13;4.30;;;14.70;99.90;;;;;;5056428;28;20048;-81
2022/06/04 07:02:47;;;;;;;6.50;4.65;;;14.90;99.90;;;;;;5061723;28;20041;-77
2022/06/04 07:05:13;;;;;;;9.85;4.63;;;14.30;99.90;;;;;;5043675;28;20144;-81
2022/06/04 07:07:40;;;;;;;10.20;5.60;;;14.10;99.90;;;;;;5067533;28;20479;-80
2022/06/04 07:10:06;;;;;;;7.03;4.28;;;13.90;99.90;;;;;;5048283;28;20075;-81
2022/06/04 07:12:32;;;;;;;6.82;4.22;;;13.60;99.90;;;;;;5066400;28;20507;-80
2022/06/04 07:14:59;;;;;;;5.03;4.35;;;14.30;99.90;;;;;;5061010;28;20136;-80
2022/06/04 07:17:24;;;;;;;4.50;3.72;;;14.90;99.90;;;;;;5045630;28;20056;-78
2022/06/04 07:19:50;;;;;;;5.25;4.68;;;14.80;99.90;;;;;;5064759;28;20032;-79
2022/06/04 07:22:17;;;;;;;5.95;4.05;;;15.60;99.90;;;;;;5065368;28;20043;-80
2022/06/04 07:24:43;;;;;;;8.25;3.22;;;15.90;99.90;;;;;;5046923;28;20041;-79
2022/06/04 07:27:09;;;;;;;4.63;3.65;;;16.00;99.90;;;;;;5059566;28;20120;-78
2022/06/04 07:29:36;;;;;;;5.10;3.67;;;15.40;99.90;;;;;;5066012;28;20097;-79
2022/06/04 07:32:03;;;;;;;8.05;5.70;;;16.00;99.90;;;;;;5063211;28;20415;-77
2022/06/04 07:34:29;;;;;;;8.30;5.03;;;16.50;99.90;;;;;;5065221;28;20037;-79
2022/06/04 07:36:55;;;;;;;6.18;4.28;;;15.80;99.90;;;;;;5061866;28;20086;-78
2022/06/04 07:39:21;;;;;;;6.88;4.07;;;15.60;99.90;;;;;;5063690;28;20037;-77
2022/06/04 07:41:51;;;;;;;8.90;4.35;;;15.90;99.90;;;;;;5056582;28;20115;-77
2022/06/04 07:44:18;;;;;;;6.72;4.78;;;16.20;99.90;;;;;;5043423;28;20041;-78
2022/06/04 07:46:46;;;;;;;4.80;4.35;;;15.90;99.90;;;;;;5041614;28;20048;-78
2022/06/04 07:49:13;;;;;;;6.15;3.85;;;15.40;99.90;;;;;;5051436;28;20379;-77
2022/06/04 07:51:41;;;;;;;4.68;4.22;;;15.10;99.90;;;;;;5046657;28;20048;-77
2022/06/04 07:54:11;;;;;;;9.20;4.45;;;15.10;99.90;;;;;;5046660;28;20045;-82
2022/06/04 07:56:38;;;;;;;6.00;4.63;;;15.40;99.90;;;;;;5045166;28;20183;-79
2022/06/04 07:59:05;;;;;;;9.35;4.55;;;15.40;99.90;;;;;;5043687;28;20037;-79
2022/06/04 08:01:31;;;;;;;7.47;4.80;;;15.50;99.90;;;;;;5040860;28;20048;-80
2022/06/04 08:03:57;;;;;;;6.38;3.85;;;15.50;99.90;;;;;;5043397;28;20575;-80
2022/06/04 08:06:23;;;;;;;6.97;4.15;;;15.40;99.90;;;;;;5046699;28;20123;-79
2022/06/04 08:08:51;;;;;;;6.15;4.10;;;15.50;99.90;;;;;;5045531;28;20049;-80
2022/06/04 08:11:35;;;;;;;13.18;5.35;;;15.60;99.90;;;;;;5042740;28;20450;-78
2022/06/04 08:14:11;;;;;;;5.30;4.68;;;15.50;99.90;;;;;;5037449;28;20048;-77
2022/06/04 08:16:39;;;;;;;8.00;4.70;;;15.80;99.90;;;;;;5040618;28;20047;-77
2022/06/04 08:19:05;;;;;;;12.18;4.53;;;15.60;99.90;;;;;;5044631;28;20045;-79
2022/06/04 08:21:33;;;;;;;7.85;4.18;;;15.70;99.90;;;;;;5040469;28;20937;-79
2022/06/04 08:23:59;;;;;;;5.45;3.53;;;15.70;99.90;;;;;;5043788;28;20057;-79
2022/06/04 08:26:25;;;;;;;5.97;3.25;;;15.80;99.90;;;;;;5044043;28;20039;-77
2022/06/04 08:28:52;;;;;;;6.63;3.35;;;15.80;99.90;;;;;;5045770;28;20166;-79
2022/06/04 08:31:18;;;;;;;8.32;4.13;;;15.50;99.90;;;;;;5040317;28;20080;-78
2022/06/04 08:33:43;;;;;;;5.30;3.60;;;15.70;99.90;;;;;;5039156;28;20511;-78
2022/06/04 08:36:12;;;;;;;4.90;3.28;;;15.80;99.90;;;;;;5043370;28;20435;-78
2022/06/04 08:38:38;;;;;;;5.22;3.47;;;16.00;99.90;;;;;;5041104;28;20975;-80
2022/06/04 08:41:07;;;;;;;10.25;4.78;;;15.70;99.90;;;;;;5046170;28;20045;-78
2022/06/04 08:43:38;;;;;;;5.35;3.75;;;15.60;99.90;;;;;;5053087;28;20415;-80
2022/06/04 08:46:12;;;;;;;6.68;4.05;;;15.60;99.90;;;;;;5063178;28;20103;-77
2022/06/04 08:48:38;;;;;;;7.03;4.32;;;15.50;99.90;;;;;;5050511;28;20500;-77
2022/06/04 08:51:14;;;;;;;6.72;4.65;;;15.50;99.90;;;;;;5057322;28;20055;-78
2022/06/04 08:53:40;;;;;;;7.50;4.18;;;15.50;99.90;;;;;;5067451;28;20040;-78
2022/06/04 08:59:17;;;;;;;15.10;6.68;;;15.50;99.90;;;;;;5062099;28;20051;-79
2022/06/04 09:01:53;;;;;;;10.27;4.78;;;15.70;99.90;;;;;;5013602;28;20107;-77
2022/06/04 09:04:43;;;;;;;7.15;4.32;;;15.80;99.90;;;;;;5054086;28;20047;-78
2022/06/04 09:07:23;;;;;;;7.10;3.67;;;16.10;99.90;;;;;;5060872;28;20044;-77
2022/06/04 09:10:04;;;;;;;8.98;4.13;;;16.50;99.90;;;;;;5046005;28;20064;-78
2022/06/04 09:12:37;;;;;;;;;;;16.40;99.90;;;;;;5061723;28;20770;-77
2022/06/04 09:15:32;;;;;;;7.60;4.30;;;16.50;99.90;;;;;;5062345;28;20344;-74
2022/06/04 09:18:01;;;;;;;7.10;4.22;;;16.60;99.90;;;;;;5051176;28;20044;-77
2022/06/04 09:20:35;;;;;;;7.45;4.28;;;16.70;99.90;;;;;;5059891;28;20036;-76
2022/06/04 09:23:34;;;;;;;7.05;4.95;;;16.70;99.90;;;;;;5042607;28;20111;-76
2022/06/04 09:26:15;;;;;;;8.27;3.90;;;16.70;99.90;;;;;;5046953;28;20078;-76
2022/06/04 09:28:46;;;;;;;;;;;16.60;99.90;;;;;;5061867;28;20166;-75
2022/06/04 09:31:49;;;;;;;17.48;4.80;;;16.90;99.90;;;;;;5060246;28;19920;-78
2022/06/04 09:34:29;;;;;;;4.32;3.88;;;17.10;99.90;;;;;;5061601;28;20471;-76
2022/06/04 09:36:56;;;;;;;8.15;4.32;;;17.00;99.90;;;;;;5061194;28;20068;-76
2022/06/04 09:39:31;;;;;;;8.70;4.32;;;17.10;99.90;;;;;;5041098;28;20044;-74
2022/06/04 09:42:00;;;;;;;4.00;3.35;;;16.90;99.90;;;;;;5061796;28;20402;-75
2022/06/04 09:44:27;;;;;;;5.88;3.08;;;16.80;99.90;;;;;;5060429;28;20414;-76
2022/06/04 09:47:07;;;;;;;5.53;3.70;;;16.60;99.90;;;;;;5055813;28;20044;-76
2022/06/04 09:49:49;;;;;;;5.93;3.35;;;16.70;99.90;;;;;;5056263;28;20032;-75
2022/06/04 09:52:35;;;;;;;4.60;3.75;;;16.70;99.90;;;;;;5042974;28;20045;-74
2022/06/04 09:55:21;;;;;;;3.95;3.35;;;16.70;99.90;;;;;;5058746;28;20138;-75
2022/06/04 09:58:00;;;;;;;5.95;3.60;;;16.90;99.90;;;;;;5063715;28;20079;-74
2022/06/04 10:00:34;;;;;;;6.43;3.70;;;16.80;99.90;;;;;;5045418;28;20086;-74
2022/06/04 10:03:10;;;;;;;5.75;2.92;;;17.00;99.90;;;;;;5032374;28;20367;-76
2022/06/04 10:05:36;;;;;;;12.48;5.53;;;17.20;99.90;;;;;;5063672;28;20113;-74
2022/06/04 10:08:13;;;;;;;9.45;3.67;;;17.10;99.90;;;;;;5059844;28;20449;-73
2022/06/04 10:10:43;;;;;;;6.60;3.05;;;17.30;99.90;;;;;;5059815;28;20083;-75
2022/06/04 10:16:24;;;;;;;4.53;3.42;;;17.00;99.90;;;;;;5051691;28;20048;-73
2022/06/04 10:19:04;;;;;;;5.53;3.65;;;17.30;99.90;;;;;;5062799;28;20443;-74
2022/06/04 10:21:36;;;;;;;7.68;3.53;;;17.10;99.90;;;;;;5043043;28;20040;-75
2022/06/04 10:24:17;;;;;;;5.30;2.90;;;17.50;99.90;;;;;;5039294;28;20390;-76
2022/06/04 10:27:04;;;;;;;6.15;3.70;;;17.60;99.90;;;;;;5055605;28;20040;-76
2022/06/04 10:29:54;;;;;;;5.28;2.88;;;17.70;99.90;;;;;;5058261;28;20044;-75
2022/06/04 10:32:29;;;;;;;;;;;17.50;99.90;;;;;;5060455;28;20060;-76
2022/06/04 10:35:13;;;;;;;5.47;3.63;;;17.60;99.90;;;;;;5062928;28;19990;-76
2022/06/04 10:38:01;;;;;;;6.47;3.58;;;17.70;99.90;;;;;;5042693;28;20332;-77
2022/06/04 10:40:45;;;;;;;4.47;2.90;;;17.50;99.90;;;;;;5034444;28;20067;-74
2022/06/04 10:43:42;;;;;;;3.83;3.10;;;17.60;99.90;;;;;;5064330;28;20155;-77
2022/06/04 10:46:31;;;;;;;9.05;3.42;;;17.70;99.90;;;;;;5056046;28;21061;-84
2022/06/04 10:49:42;;;;;;;9.15;2.92;;;17.70;99.90;;;;;;5047009;28;20068;-78
2022/06/04 10:52:42;;;;;;;5.03;2.63;;;17.40;99.90;;;;;;5048400;28;20743;-78
2022/06/04 10:55:37;;;;;;;6.00;4.00;;;17.30;99.90;;;;;;5067265;28;20059;-78
2022/06/04 10:58:17;;;;;;;7.97;3.53;;;17.20;99.90;;;;;;5072136;28;20044;-76
2022/06/04 11:01:00;;;;;;;5.22;4.28;;;17.60;99.90;;;;;;5066876;28;20036;-77
2022/06/04 11:03:55;;;;;;;6.07;3.85;;;17.70;99.90;;;;;;5065447;28;20044;-78
2022/06/04 11:06:31;;;;;;;9.15;3.47;;;17.50;99.90;;;;;;5065677;28;20052;-74
2022/06/04 11:09:03;;;;;;;5.25;3.13;;;17.70;99.90;;;;;;5065425;28;20048;-77
2022/06/04 11:11:41;;;;;;;6.82;2.95;;;17.50;99.90;;;;;;5064163;28;20106;-78
2022/06/04 11:14:16;;;;;;;5.57;3.05;;;17.60;99.90;;;;;;5065545;28;20076;-77
2022/06/04 11:17:11;;;;;;;4.80;2.95;;;17.70;99.90;;;;;;5044611;28;20048;-77
2022/06/04 11:19:46;;;;;;;6.47;3.88;;;17.70;99.90;;;;;;5043718;28;20132;-76
2022/06/04 11:22:28;;;;;;;3.85;2.80;;;17.60;99.90;;;;;;5042133;28;20102;-81
2022/06/04 11:25:15;;;;;;;6.00;3.42;;;17.90;99.90;;;;;;5050983;28;20040;-78
2022/06/04 11:27:47;;;;;;;4.82;2.72;;;17.40;99.90;;;;;;5059382;28;20179;-77
2022/06/04 11:30:16;;;;;;;4.28;2.63;;;17.40;99.90;;;;;;5069111;28;20072;-81
2022/06/04 11:32:49;;;;;;;2.85;2.47;;;17.40;99.90;;;;;;5064474;28;20514;-82
2022/06/04 11:35:40;;;;;;;3.20;2.40;;;17.80;99.90;;;;;;5065049;28;20047;-79
2022/06/04 11:38:18;;;;;;;6.47;3.72;;;17.50;99.90;;;;;;5047249;28;20049;-80
2022/06/04 11:41:28;;;;;;;6.43;3.33;;;17.70;99.90;;;;;;5046729;28;20052;-81
2022/06/04 11:44:14;;;;;;;3.45;2.85;;;18.10;99.90;;;;;;5020069;28;20448;-79
2022/06/04 11:46:55;;;;;;;6.80;3.50;;;17.80;99.90;;;;;;5065897;28;20048;-80
2022/06/04 11:49:47;;;;;;;5.07;3.35;;;17.60;99.90;;;;;;5067053;28;20052;-76
2022/06/04 11:52:29;;;;;;;4.40;3.05;;;17.70;99.90;;;;;;5051164;28;20048;-82
2022/06/04 11:55:32;;;;;;;5.45;3.70;;;18.00;99.90;;;;;;5064116;28;20033;-79
2022/06/04 11:58:21;;;;;;;5.68;3.08;;;17.90;99.90;;;;;;5067436;28;20554;-82
2022/06/04 12:00:48;;;;;;;3.55;3.22;;;17.80;99.90;;;;;;5064890;28;20454;-80
2022/06/04 12:03:13;;;;;;;9.88;4.15;;;17.80;99.90;;;;;;5065403;28;20049;-81
2022/06/04 12:05:39;;;;;;;5.05;3.13;;;17.60;99.90;;;;;;5045627;28;20087;-79
2022/06/04 12:08:15;;;;;;;4.30;2.70;;;17.80;99.90;;;;;;5063908;28;20041;-80
2022/06/04 12:10:55;;;;;;;8.48;3.92;;;17.60;99.90;;;;;;5044646;28;20363;-79
2022/06/04 12:13:30;;;;;;;10.38;4.40;;;17.70;99.90;;;;;;5064285;28;20045;-79
2022/06/04 12:16:20;;;;;;;9.30;3.35;;;18.00;99.90;;;;;;5023342;28;20037;-79
2022/06/04 12:24:15;;;;;;;10.90;4.80;;;18.20;99.90;;;;;;5045829;28;20044;-79
2022/06/04 12:25:19;;;;;;;5.57;3.13;;;17.90;99.90;;;;;;5064635;28;20041;-80
2022/06/04 12:28:02;;;;;;;7.68;3.22;;;18.10;99.90;;;;;;5062905;28;20512;-79
2022/06/04 12:30:38;;;;;;;8.93;2.92;;;17.90;99.90;;;;;;5063310;28;20511;-78
2022/06/04 12:33:32;;;;;;;5.60;4.13;;;17.60;99.90;;;;;;5067011;28;20056;-75
2022/06/04 12:36:05;;;;;;;8.43;3.50;;;17.80;99.90;;;;;;5060876;28;20048;-78
2022/06/04 12:38:34;;;;;;;8.98;3.55;;;18.10;99.90;;;;;;5064826;28;20043;-80
2022/06/04 12:41:05;;;;;;;7.18;4.32;;;17.60;99.90;;;;;;5049520;28;20058;-78
2022/06/04 12:43:34;;;;;;;6.97;4.45;;;17.80;99.90;;;;;;5062969;28;20056;-82
2022/06/04 12:46:28;;;;;;;6.13;3.88;;;18.00;99.90;;;;;;5062444;28;20414;-81
2022/06/04 12:49:27;;;;;;;6.00;3.25;;;18.10;99.90;;;;;;5052384;28;20041;-83
2022/06/04 12:52:17;;;;;;;7.13;4.10;;;18.20;99.90;;;;;;5044541;28;20052;-81
2022/06/04 12:54:57;;;;;;;7.85;4.00;;;18.00;99.90;;;;;;5046107;28;20133;-82
2022/06/04 12:58:01;;;;;;;8.00;4.75;;;17.90;99.90;;;;;;5062015;28;20557;-80
2022/06/04 13:00:38;;;;;;;10.75;4.45;;;18.00;99.90;;;;;;5026515;28;20036;-80
2022/06/04 13:03:07;;;;;;;8.77;3.80;;;18.00;99.90;;;;;;5061574;28;20437;-80
2022/06/04 13:05:35;;;;;;;6.90;4.35;;;17.90;99.90;;;;;;5044651;28;20045;-80
2022/06/04 13:08:19;;;;;;;6.35;4.28;;;18.10;99.90;;;;;;5045479;28;20110;-81
2022/06/04 13:10:51;;;;;;;5.68;4.18;;;18.20;99.90;;;;;;5064005;28;20041;-80
2022/06/04 13:13:43;;;;;;;10.23;3.70;;;17.80;99.90;;;;;;5063364;28;20370;-75
2022/06/04 13:16:21;;;;;;;10.48;5.05;;;18.30;99.90;;;;;;5060801;28;20048;-76
2022/06/04 13:18:58;;;;;;;8.93;5.13;;;18.00;99.90;;;;;;5054247;28;20053;-81
2022/06/04 13:21:24;;;;;;;9.90;5.43;;;18.00;99.90;;;;;;5055739;28;20067;-79
2022/06/04 13:23:59;;;;;;;6.90;4.70;;;18.00;99.90;;;;;;5062261;28;20036;-81
2022/06/04 13:26:31;;;;;;;10.02;4.20;;;17.90;99.90;;;;;;5061569;28;20435;-81
2022/06/04 13:28:58;;;;;;;8.40;3.88;;;18.30;99.90;;;;;;5062870;28;20504;-81
2022/06/04 13:31:25;;;;;;;8.23;4.57;;;18.10;99.90;;;;;;5060407;28;20141;-81